createdAt,value
2023-02-27T00:00:30.660Z,101922.78
2023-02-27T00:02:58.227Z,101932.78
2023-02-27T00:05:25.442Z,101925.59
2023-02-27T00:07:51.927Z,101923.22
2023-02-27T00:10:18.640Z,101931.03
2023-02-27T00:12:48.144Z,101931.03
2023-02-27T00:15:18.478Z,101933.59
2023-02-27T00:17:45.939Z,101940.34
2023-02-27T00:20:15.724Z,101937.72
2023-02-27T00:22:43.047Z,101933.38
2023-02-27T00:25:09.854Z,101934.19
2023-02-27T00:27:37.014Z,101930.81
2023-02-27T00:30:08.890Z,101935.75
2023-02-27T00:32:36.938Z,101929.81
2023-02-27T00:35:05.121Z,101929.81
2023-02-27T00:37:31.701Z,101930.31
2023-02-27T00:39:58.132Z,101931.31
2023-02-27T00:42:25.024Z,101935.66
2023-02-27T00:44:51.468Z,101930.38
2023-02-27T00:47:17.927Z,101932.88
2023-02-27T00:49:44.463Z,101929.19
2023-02-27T00:52:11.114Z,101937.06
2023-02-27T00:54:38.293Z,101933.69
2023-02-27T00:57:04.720Z,101931.34
2023-02-27T00:59:32.062Z,101933.84
2023-02-27T01:01:58.727Z,101933.19
2023-02-27T01:04:25.636Z,101930.38
2023-02-27T01:06:52.184Z,101933.69
2023-02-27T01:09:19.679Z,101927.50
2023-02-27T01:11:49.186Z,101930.91
2023-02-27T01:14:15.662Z,101924.81
2023-02-27T01:16:42.305Z,101931.56
2023-02-27T01:19:08.846Z,101933.97
2023-02-27T01:21:35.365Z,101932.22
2023-02-27T01:24:01.833Z,101929.13
2023-02-27T01:26:28.425Z,101924.72
2023-02-27T01:28:54.984Z,101922.44
2023-02-27T01:31:21.737Z,101928.63
2023-02-27T01:33:49.106Z,101919.38
2023-02-27T01:36:15.583Z,101915.03
2023-02-27T01:38:42.100Z,101921.38
2023-02-27T01:41:08.584Z,101921.72
2023-02-27T01:43:53.340Z,101913.16
2023-02-27T01:46:19.780Z,101920.75
2023-02-27T01:48:46.296Z,101917.41
2023-02-27T01:51:19.104Z,101918.19
2023-02-27T01:53:48.357Z,101917.22
2023-02-27T01:56:19.019Z,101909.69
2023-02-27T01:58:47.629Z,101917.59
2023-02-27T02:01:15.226Z,101916.09
2023-02-27T02:03:46.293Z,101924.69
2023-02-27T02:06:13.367Z,101916.09
2023-02-27T02:08:44.837Z,101917.59
2023-02-27T02:11:13.307Z,101922.19
2023-02-27T02:13:41.148Z,101920.47
2023-02-27T02:16:17.853Z,101916.16
2023-02-27T02:19:05.175Z,101914.41
2023-02-27T02:21:44.954Z,101917.75
2023-02-27T02:24:40.341Z,101917.53
2023-02-27T02:27:19.407Z,101912.53
2023-02-27T02:29:54.764Z,101919.88
2023-02-27T02:32:40.549Z,101913.22
2023-02-27T02:35:33.188Z,101907.41
2023-02-27T02:38:05.754Z,101914.16
2023-02-27T02:40:40.497Z,101912.53
2023-02-27T02:43:19.345Z,101917.22
2023-02-27T02:45:59.896Z,101910.00
2023-02-27T02:48:29.216Z,101910.31
2023-02-27T02:51:12.765Z,101895.31
2023-02-27T02:53:48.172Z,101902.63
2023-02-27T02:56:24.141Z,101902.94
2023-02-27T02:59:02.772Z,101904.69
2023-02-27T03:01:39.146Z,101905.66
2023-02-27T03:04:15.382Z,101898.69
2023-02-27T03:06:52.040Z,101902.06
2023-02-27T03:09:23.646Z,101900.38
2023-02-27T03:11:53.508Z,101905.94
2023-02-27T03:14:32.335Z,101911.22
2023-02-27T03:17:04.167Z,101916.94
2023-02-27T03:19:41.098Z,101920.28
2023-02-27T03:22:11.101Z,101920.59
2023-02-27T03:24:53.632Z,101924.13
2023-02-27T03:27:22.224Z,101931.09
2023-02-27T03:29:54.928Z,101926.53
2023-02-27T03:32:38.783Z,101932.69
2023-02-27T03:35:07.323Z,101929.84
2023-02-27T03:37:42.933Z,101942.75
2023-02-27T03:40:32.720Z,101936.94
2023-02-27T03:43:16.838Z,101942.00
2023-02-27T03:45:49.112Z,101944.50
2023-02-27T03:48:15.772Z,101944.50
2023-02-27T03:50:42.298Z,101946.19
2023-02-27T03:53:22.218Z,101943.78
2023-02-27T03:55:51.147Z,101947.16
2023-02-27T03:58:17.690Z,101949.34
2023-02-27T04:00:44.293Z,101948.88
2023-02-27T04:03:11.611Z,101948.06
2023-02-27T04:05:38.396Z,101952.25
2023-02-27T04:08:23.539Z,101961.63
2023-02-27T04:11:01.910Z,101959.88
2023-02-27T04:13:34.421Z,101966.22
2023-02-27T04:16:19.096Z,101966.63
2023-02-27T04:19:04.273Z,101964.88
2023-02-27T04:21:41.859Z,101970.00
2023-02-27T04:24:35.487Z,101968.00
2023-02-27T04:27:25.258Z,101965.56
2023-02-27T04:30:15.239Z,101970.41
2023-02-27T04:33:06.561Z,101973.84
2023-02-27T04:35:47.602Z,101973.47
2023-02-27T04:38:30.547Z,101971.03
2023-02-27T04:41:07.903Z,101974.34
2023-02-27T04:43:36.080Z,101972.66
2023-02-27T04:46:05.073Z,101979.06
2023-02-27T04:48:40.524Z,101974.47
2023-02-27T04:51:15.390Z,101969.47
2023-02-27T04:53:57.243Z,101975.53
2023-02-27T04:56:30.811Z,101974.66
2023-02-27T04:59:02.105Z,101981.69
2023-02-27T05:01:33.082Z,101976.44
2023-02-27T05:04:00.757Z,101977.16
2023-02-27T05:06:35.455Z,101974.41
2023-02-27T05:09:21.290Z,101986.75
2023-02-27T05:11:58.769Z,101975.53
2023-02-27T05:14:33.792Z,101986.50
2023-02-27T05:17:03.099Z,101992.34
2023-02-27T05:19:31.767Z,101983.47
2023-02-27T05:22:13.417Z,101980.25
2023-02-27T05:24:59.217Z,101988.50
2023-02-27T05:27:37.805Z,101993.47
2023-02-27T05:30:37.665Z,101997.72
2023-02-27T05:33:16.072Z,101998.28
2023-02-27T05:36:05.789Z,102001.66
2023-02-27T05:38:39.119Z,102003.88
2023-02-27T05:41:13.631Z,102001.91
2023-02-27T05:43:44.965Z,102001.78
2023-02-27T05:46:16.486Z,102009.81
2023-02-27T05:48:50.074Z,102013.19
2023-02-27T05:51:19.365Z,102010.63
2023-02-27T05:53:51.151Z,102013.50
2023-02-27T05:56:21.519Z,102013.25
2023-02-27T05:58:56.783Z,102017.19
2023-02-27T06:01:23.358Z,102008.47
2023-02-27T06:03:49.844Z,102009.81
2023-02-27T06:06:19.227Z,102022.50
2023-02-27T06:08:46.502Z,102020.88
2023-02-27T06:11:13.267Z,102033.63
2023-02-27T06:13:42.008Z,102033.78
2023-02-27T06:16:11.463Z,102033.53
2023-02-27T06:18:38.074Z,102028.88
2023-02-27T06:21:05.193Z,102030.00
2023-02-27T06:23:31.684Z,102043.00
2023-02-27T06:25:58.299Z,102043.88
2023-02-27T06:28:24.855Z,102050.28
2023-02-27T06:30:57.091Z,102056.69
2023-02-27T06:33:26.039Z,102058.72
2023-02-27T06:35:53.161Z,102062.16
2023-02-27T06:38:19.738Z,102072.75
2023-02-27T06:40:46.302Z,102065.88
2023-02-27T06:43:12.814Z,102063.47
2023-02-27T06:45:39.325Z,102070.34
2023-02-27T06:48:06.132Z,102064.84
2023-02-27T06:50:32.629Z,102063.50
2023-02-27T06:52:59.087Z,102072.00
2023-02-27T06:55:25.785Z,102066.09
2023-02-27T06:57:52.336Z,102060.88
2023-02-27T07:00:19.308Z,102068.66
2023-02-27T07:02:45.765Z,102068.47
2023-02-27T07:05:12.200Z,102071.22
2023-02-27T07:07:39.380Z,102077.00
2023-02-27T07:10:12.059Z,102077.25
2023-02-27T07:12:39.621Z,102079.03
2023-02-27T07:15:07.305Z,102077.06
2023-02-27T07:17:33.744Z,102079.91
2023-02-27T07:20:00.243Z,102084.06
2023-02-27T07:22:26.777Z,102084.88
2023-02-27T07:24:53.183Z,102093.78
2023-02-27T07:27:19.612Z,102093.16
2023-02-27T07:29:46.394Z,102095.94
2023-02-27T07:32:12.877Z,102098.06
2023-02-27T07:34:39.381Z,102107.06
2023-02-27T07:37:05.923Z,102102.25
2023-02-27T07:39:32.342Z,102105.94
2023-02-27T07:41:58.904Z,102114.84
2023-02-27T07:44:25.401Z,102112.84
2023-02-27T07:46:51.886Z,102114.25
2023-02-27T07:49:18.375Z,102113.03
2023-02-27T07:51:45.063Z,102109.25
2023-02-27T07:54:11.500Z,102114.78
2023-02-27T07:56:37.999Z,102112.69
2023-02-27T07:59:04.553Z,102118.91
2023-02-27T08:01:31.146Z,102114.84
2023-02-27T08:03:57.664Z,102117.63
2023-02-27T08:06:24.306Z,102116.25
2023-02-27T08:08:51.745Z,102117.38
2023-02-27T08:11:18.520Z,102118.47
2023-02-27T08:14:00.060Z,102104.09
2023-02-27T08:16:28.330Z,102107.00
2023-02-27T08:18:55.188Z,102103.94
2023-02-27T08:21:21.675Z,102102.31
2023-02-27T08:23:48.177Z,102101.63
2023-02-27T08:26:15.308Z,102097.47
2023-02-27T08:28:41.868Z,102103.13
2023-02-27T08:31:08.479Z,102098.38
2023-02-27T08:33:35.273Z,102094.53
2023-02-27T08:36:02.005Z,102099.91
2023-02-27T08:38:28.548Z,102101.03
2023-02-27T08:40:55.207Z,102106.59
2023-02-27T08:43:22.875Z,102107.75
2023-02-27T08:45:50.403Z,102098.69
2023-02-27T08:48:18.477Z,102109.06
2023-02-27T08:50:46.310Z,102111.91
2023-02-27T08:53:13.316Z,102107.25
2023-02-27T08:55:39.843Z,102099.00
2023-02-27T08:58:06.333Z,102107.88
2023-02-27T09:00:32.970Z,102102.72
2023-02-27T09:03:00.587Z,102101.16
2023-02-27T09:05:27.877Z,102108.34
2023-02-27T09:07:54.309Z,102100.97
2023-02-27T09:10:20.852Z,102116.78
2023-02-27T09:12:49.178Z,102114.47
2023-02-27T09:15:15.751Z,102106.75
2023-02-27T09:17:42.236Z,102108.75
2023-02-27T09:20:10.780Z,102117.63
2023-02-27T09:22:37.409Z,102118.44
2023-02-27T09:25:04.320Z,102120.69
2023-02-27T09:27:30.819Z,102122.72
2023-02-27T09:29:57.377Z,102120.53
2023-02-27T09:32:24.904Z,102124.66
2023-02-27T09:34:51.653Z,102112.66
2023-02-27T09:37:19.265Z,102121.97
2023-02-27T09:39:46.482Z,102113.59
2023-02-27T09:42:20.702Z,102121.16
2023-02-27T09:44:50.491Z,102117.69
2023-02-27T09:47:33.653Z,102119.44
2023-02-27T09:50:07.293Z,102118.91
2023-02-27T09:52:36.524Z,102126.69
2023-02-27T09:55:06.466Z,102123.56
2023-02-27T09:57:43.991Z,102125.88
2023-02-27T10:00:39.761Z,102127.63
2023-02-27T10:03:24.615Z,102122.84
2023-02-27T10:06:15.201Z,102119.84
2023-02-27T10:08:55.876Z,102121.91
2023-02-27T10:11:49.993Z,102122.97
2023-02-27T10:14:25.486Z,102124.25
2023-02-27T10:16:53.952Z,102112.09
2023-02-27T10:19:29.062Z,102126.09
2023-02-27T10:21:57.881Z,102114.03
2023-02-27T10:24:37.113Z,102104.84
2023-02-27T10:27:07.354Z,102110.25
2023-02-27T10:29:41.685Z,102106.91
2023-02-27T10:32:32.747Z,102116.72
2023-02-27T10:35:08.791Z,102124.41
2023-02-27T10:37:39.914Z,102122.69
2023-02-27T10:40:07.012Z,102119.72
2023-02-27T10:42:38.250Z,102119.19
2023-02-27T10:45:06.397Z,102120.00
2023-02-27T10:47:32.852Z,102125.81
2023-02-27T10:50:00.384Z,102112.41
2023-02-27T10:52:27.188Z,102121.38
2023-02-27T10:54:53.691Z,102128.00
2023-02-27T10:57:37.561Z,102121.84
2023-02-27T11:00:09.638Z,102123.50
2023-02-27T11:02:39.903Z,102126.25
2023-02-27T11:05:25.390Z,102131.09
2023-02-27T11:07:52.253Z,102122.78
2023-02-27T11:10:28.026Z,102125.34
2023-02-27T11:13:03.335Z,102117.22
2023-02-27T11:15:32.494Z,102124.38
2023-02-27T11:18:20.726Z,102109.09
2023-02-27T11:20:50.743Z,102110.94
2023-02-27T11:23:20.744Z,102104.19
2023-02-27T11:25:47.827Z,102089.44
2023-02-27T11:28:22.387Z,102099.16
2023-02-27T11:31:03.299Z,102098.66
2023-02-27T11:33:34.908Z,102090.91
2023-02-27T11:36:02.565Z,102084.72
2023-02-27T11:38:30.837Z,102084.72
2023-02-27T11:41:00.910Z,102084.84
2023-02-27T11:43:49.149Z,102085.75
2023-02-27T11:46:47.231Z,102073.94
2023-02-27T11:49:28.134Z,102073.81
2023-02-27T11:52:19.518Z,102073.09
2023-02-27T11:54:53.222Z,102070.69
2023-02-27T11:57:38.460Z,102053.66
2023-02-27T12:00:19.778Z,102049.78
2023-02-27T12:03:20.270Z,102053.38
2023-02-27T12:05:53.617Z,102048.19
2023-02-27T12:08:47.947Z,102058.53
2023-02-27T12:11:35.339Z,102058.47
2023-02-27T12:14:29.744Z,102050.19
2023-02-27T12:17:02.862Z,102058.19
2023-02-27T12:19:52.613Z,102050.31
2023-02-27T12:22:31.359Z,102041.09
2023-02-27T12:25:04.167Z,102046.97
2023-02-27T12:27:44.988Z,102031.50
2023-02-27T12:30:23.238Z,102032.81
2023-02-27T12:33:08.182Z,102037.25
2023-02-27T12:35:34.687Z,102032.78
2023-02-27T12:38:02.476Z,102028.88
2023-02-27T12:40:41.402Z,102017.72
2023-02-27T12:43:34.106Z,102030.00
2023-02-27T12:46:27.023Z,102023.19
2023-02-27T12:49:09.066Z,102021.25
2023-02-27T12:52:01.160Z,102011.94
2023-02-27T12:54:36.626Z,102022.28
2023-02-27T12:57:18.130Z,102013.13
2023-02-27T13:00:08.324Z,102010.94
2023-02-27T13:02:59.191Z,102011.88
2023-02-27T13:05:35.786Z,101999.31
2023-02-27T13:08:20.471Z,102011.56
2023-02-27T13:10:56.097Z,102000.66
2023-02-27T13:13:48.246Z,101997.94
2023-02-27T13:16:23.035Z,101994.16
2023-02-27T13:19:06.300Z,102000.44
2023-02-27T13:21:50.081Z,101991.69
2023-02-27T13:24:16.434Z,101988.22
2023-02-27T13:26:48.157Z,101987.53
2023-02-27T13:29:18.335Z,101999.78
2023-02-27T13:32:14.290Z,101988.94
2023-02-27T13:35:06.257Z,101998.94
2023-02-27T13:37:53.693Z,101993.00
2023-02-27T13:40:46.935Z,101986.72
2023-02-27T13:43:28.675Z,101985.50
2023-02-27T13:46:03.771Z,101984.22
2023-02-27T13:48:33.348Z,101994.72
2023-02-27T13:51:01.098Z,102000.84
2023-02-27T13:53:28.884Z,101995.28
2023-02-27T13:56:15.970Z,101991.28
2023-02-27T13:58:43.407Z,101987.16
2023-02-27T14:01:17.239Z,101987.28
2023-02-27T14:03:53.292Z,101982.81
2023-02-27T14:06:21.405Z,101987.28
2023-02-27T14:08:50.215Z,101978.94
2023-02-27T14:11:26.946Z,101985.13
2023-02-27T14:13:57.686Z,101990.59
2023-02-27T14:16:39.848Z,101985.47
2023-02-27T14:19:15.413Z,101987.28
2023-02-27T14:21:54.325Z,101989.03
2023-02-27T14:24:26.117Z,101998.38
2023-02-27T14:26:54.682Z,101997.94
2023-02-27T14:29:25.877Z,101993.09
2023-02-27T14:31:54.174Z,101998.88
2023-02-27T14:34:22.224Z,101987.75
2023-02-27T14:36:53.541Z,101990.59
2023-02-27T14:39:28.679Z,102001.63
2023-02-27T14:42:32.413Z,101994.03
2023-02-27T14:44:59.144Z,101999.31
2023-02-27T14:47:35.025Z,102001.25
2023-02-27T14:50:04.083Z,102007.41
2023-02-27T14:52:32.811Z,102005.31
2023-02-27T14:55:30.198Z,102000.16
2023-02-27T14:58:20.973Z,101999.56
2023-02-27T15:00:55.441Z,102003.03
2023-02-27T15:03:29.228Z,102004.38
2023-02-27T15:06:01.164Z,102006.75
2023-02-27T15:08:37.023Z,102000.00
2023-02-27T15:11:04.116Z,101992.97
2023-02-27T15:13:33.227Z,101996.66
2023-02-27T15:16:20.576Z,102004.00
2023-02-27T15:18:51.624Z,102002.47
2023-02-27T15:21:22.592Z,102007.38
2023-02-27T15:24:00.000Z,102009.16
2023-02-27T15:26:30.171Z,102011.16
2023-02-27T15:28:59.779Z,102014.09
2023-02-27T15:31:30.050Z,102020.75
2023-02-27T15:33:58.143Z,102027.66
2023-02-27T15:36:35.812Z,102017.72
2023-02-27T15:39:03.444Z,102013.53
2023-02-27T15:41:30.010Z,102019.81
2023-02-27T15:43:56.691Z,102013.91
2023-02-27T15:46:24.706Z,102020.69
2023-02-27T15:48:53.388Z,102018.88
2023-02-27T15:51:19.844Z,102017.91
2023-02-27T15:53:53.721Z,102018.69
2023-02-27T15:56:32.579Z,102015.94
2023-02-27T15:59:01.242Z,102026.25
2023-02-27T16:01:32.292Z,102025.31
2023-02-27T16:04:02.089Z,102027.75
2023-02-27T16:06:35.106Z,102031.13
2023-02-27T16:09:04.989Z,102035.44
2023-02-27T16:11:35.098Z,102043.13
2023-02-27T16:14:02.265Z,102030.94
2023-02-27T16:16:35.870Z,102036.09
2023-02-27T16:19:16.444Z,102035.97
2023-02-27T16:22:15.736Z,102032.28
2023-02-27T16:24:43.514Z,102039.91
2023-02-27T16:27:29.998Z,102040.75
2023-02-27T16:30:02.914Z,102039.72
2023-02-27T16:32:35.179Z,102033.56
2023-02-27T16:35:08.358Z,102044.75
2023-02-27T16:37:36.905Z,102045.47
2023-02-27T16:40:14.161Z,102046.13
2023-02-27T16:42:40.900Z,102044.22
2023-02-27T16:45:10.700Z,102045.78
2023-02-27T16:47:37.167Z,102044.81
2023-02-27T16:50:03.781Z,102052.50
2023-02-27T16:52:30.194Z,102045.47
2023-02-27T16:54:56.693Z,102047.00
2023-02-27T16:57:27.693Z,102046.09
2023-02-27T16:59:54.245Z,102044.34
2023-02-27T17:02:20.681Z,102048.47
2023-02-27T17:04:48.337Z,102049.22
2023-02-27T17:07:16.876Z,102055.03
2023-02-27T17:09:44.945Z,102059.13
2023-02-27T17:12:11.752Z,102061.69
2023-02-27T17:14:38.213Z,102067.69
2023-02-27T17:17:05.519Z,102069.22
2023-02-27T17:19:32.588Z,102065.63
2023-02-27T17:21:59.016Z,102074.09
2023-02-27T17:24:25.539Z,102066.16
2023-02-27T17:26:52.620Z,102068.59
2023-02-27T17:29:19.331Z,102077.09
2023-02-27T17:31:46.457Z,102076.13
2023-02-27T17:34:12.933Z,102086.38
2023-02-27T17:36:39.465Z,102081.13
2023-02-27T17:39:06.001Z,102093.97
2023-02-27T17:41:32.963Z,102095.63
2023-02-27T17:44:01.556Z,102094.81
2023-02-27T17:46:30.214Z,102099.88
2023-02-27T17:49:00.406Z,102102.28
2023-02-27T17:51:28.985Z,102107.41
2023-02-27T17:53:56.174Z,102109.06
2023-02-27T17:56:23.074Z,102108.97
2023-02-27T17:58:49.658Z,102114.03
2023-02-27T18:01:21.488Z,102116.47
2023-02-27T18:03:49.409Z,102119.78
2023-02-27T18:06:16.832Z,102116.34
2023-02-27T18:08:43.351Z,102126.69
2023-02-27T18:11:15.720Z,102124.81
2023-02-27T18:13:42.588Z,102130.88
2023-02-27T18:16:10.273Z,102130.81
2023-02-27T18:18:41.131Z,102139.44
2023-02-27T18:21:14.374Z,102136.03
2023-02-27T18:23:41.366Z,102137.75
2023-02-27T18:26:12.505Z,102135.94
2023-02-27T18:28:43.742Z,102145.16
2023-02-27T18:31:25.244Z,102136.53
2023-02-27T18:33:51.827Z,102138.06
2023-02-27T18:36:19.005Z,102129.28
2023-02-27T18:38:45.826Z,102133.28
2023-02-27T18:41:13.713Z,102130.34
2023-02-27T18:43:42.046Z,102130.88
2023-02-27T18:46:09.853Z,102128.09
2023-02-27T18:48:36.653Z,102130.69
2023-02-27T18:51:05.964Z,102128.16
2023-02-27T18:53:35.616Z,102131.56
2023-02-27T18:56:04.130Z,102133.25
2023-02-27T18:58:31.190Z,102134.09
2023-02-27T19:00:58.231Z,102131.41
2023-02-27T19:03:24.960Z,102126.97
2023-02-27T19:05:51.616Z,102132.09
2023-02-27T19:08:18.110Z,102126.97
2023-02-27T19:10:44.636Z,102131.34
2023-02-27T19:13:12.005Z,102126.97
2023-02-27T19:15:38.971Z,102129.44
2023-02-27T19:18:06.868Z,102127.50
2023-02-27T19:20:34.721Z,102127.28
2023-02-27T19:23:01.252Z,102126.31
2023-02-27T19:25:30.036Z,102120.78
2023-02-27T19:27:57.925Z,102122.44
2023-02-27T19:30:27.956Z,102124.19
2023-02-27T19:32:54.842Z,102123.31
2023-02-27T19:35:21.831Z,102121.47
2023-02-27T19:37:54.117Z,102135.00
2023-02-27T19:40:22.106Z,102122.97
2023-02-27T19:42:49.168Z,102127.25
2023-02-27T19:45:15.889Z,102129.94
2023-02-27T19:47:42.499Z,102126.47
2023-02-27T19:50:09.834Z,102136.75
2023-02-27T19:52:37.162Z,102133.53
2023-02-27T19:55:04.367Z,102124.16
2023-02-27T19:57:30.880Z,102121.63
2023-02-27T19:59:57.421Z,102125.97
2023-02-27T20:02:24.353Z,102126.94
2023-02-27T20:04:50.962Z,102118.34
2023-02-27T20:07:18.944Z,102124.41
2023-02-27T20:09:45.527Z,102121.06
2023-02-27T20:12:11.951Z,102128.78
2023-02-27T20:14:38.502Z,102127.09
2023-02-27T20:17:04.939Z,102129.41
2023-02-27T20:19:31.433Z,102129.19
2023-02-27T20:21:57.954Z,102127.34
2023-02-27T20:24:25.386Z,102128.53
2023-02-27T20:26:57.781Z,102129.56
2023-02-27T20:29:26.011Z,102130.38
2023-02-27T20:31:53.903Z,102131.00
2023-02-27T20:34:25.781Z,102131.72
2023-02-27T20:36:54.225Z,102126.63
2023-02-27T20:39:21.021Z,102127.34
2023-02-27T20:41:48.532Z,102118.94
2023-02-27T20:44:15.700Z,102134.47
2023-02-27T20:46:43.642Z,102128.38
2023-02-27T20:49:12.150Z,102130.91
2023-02-27T20:51:39.629Z,102129.06
2023-02-27T20:54:08.811Z,102125.59
2023-02-27T20:56:38.316Z,102122.84
2023-02-27T20:59:06.883Z,102123.47
2023-02-27T21:01:33.566Z,102130.41
2023-02-27T21:04:00.645Z,102129.34
2023-02-27T21:06:27.545Z,102129.19
2023-02-27T21:08:56.309Z,102125.63
2023-02-27T21:11:29.052Z,102134.97
2023-02-27T21:14:03.616Z,102144.19
2023-02-27T21:16:30.539Z,102133.63
2023-02-27T21:18:57.388Z,102136.13
2023-02-27T21:21:27.996Z,102137.78
2023-02-27T21:23:54.755Z,102139.41
2023-02-27T21:26:26.583Z,102132.47
2023-02-27T21:28:55.639Z,102140.22
2023-02-27T21:31:23.795Z,102145.25
2023-02-27T21:33:52.340Z,102138.06
2023-02-27T21:36:24.809Z,102143.88
2023-02-27T21:38:55.215Z,102142.38
2023-02-27T21:41:21.704Z,102147.41
2023-02-27T21:43:48.489Z,102148.78
2023-02-27T21:46:15.256Z,102146.75
2023-02-27T21:48:42.179Z,102146.34
2023-02-27T21:51:09.160Z,102146.34
2023-02-27T21:53:37.196Z,102144.22
2023-02-27T21:56:11.021Z,102147.41
2023-02-27T21:58:38.448Z,102149.97
2023-02-27T22:01:15.413Z,102153.38
2023-02-27T22:03:47.142Z,102153.66
2023-02-27T22:06:14.895Z,102140.91
2023-02-27T22:08:42.318Z,102140.16
2023-02-27T22:11:08.954Z,102143.66
2023-02-27T22:13:36.319Z,102138.63
2023-02-27T22:16:10.674Z,102143.66
2023-02-27T22:18:39.084Z,102139.44
2023-02-27T22:21:16.647Z,102134.00
2023-02-27T22:23:44.599Z,102142.53
2023-02-27T22:26:13.896Z,102148.34
2023-02-27T22:28:41.411Z,102138.78
2023-02-27T22:31:16.999Z,102147.34
2023-02-27T22:33:47.047Z,102140.38
2023-02-27T22:36:20.181Z,102142.13
2023-02-27T22:38:48.145Z,102146.47
2023-02-27T22:41:17.311Z,102155.81
2023-02-27T22:43:44.971Z,102146.03
2023-02-27T22:46:13.686Z,102160.09
2023-02-27T22:48:40.104Z,102153.13
2023-02-27T22:51:12.479Z,102161.41
2023-02-27T22:53:39.326Z,102162.91
2023-02-27T22:56:11.620Z,102156.88
2023-02-27T22:58:39.728Z,102158.59
2023-02-27T23:01:11.997Z,102161.81
2023-02-27T23:03:40.295Z,102157.63
2023-02-27T23:06:08.367Z,102159.22
2023-02-27T23:08:34.820Z,102166.06
2023-02-27T23:11:01.658Z,102169.31
2023-02-27T23:13:28.119Z,102169.09
2023-02-27T23:15:54.823Z,102165.56
2023-02-27T23:18:21.489Z,102171.47
2023-02-27T23:20:47.941Z,102176.22
2023-02-27T23:23:14.496Z,102176.16
2023-02-27T23:25:41.115Z,102180.44
2023-02-27T23:28:07.754Z,102183.94
2023-02-27T23:30:34.335Z,102185.78
2023-02-27T23:33:01.077Z,102184.03
2023-02-27T23:35:28.478Z,102185.72
2023-02-27T23:37:57.260Z,102183.66
2023-02-27T23:40:26.260Z,102186.81
2023-02-27T23:43:11.276Z,102205.53
2023-02-27T23:45:38.060Z,102199.59
2023-02-27T23:48:04.835Z,102205.41
2023-02-27T23:50:40.124Z,102198.63
2023-02-27T23:53:07.584Z,102202.16
2023-02-27T23:55:35.986Z,102200.41
2023-02-27T23:58:05.973Z,102201.28
